Wednesday, April 25, 2018, 5:05 AM EDT
Back to Local

KBTV, Burlington International

Location: South Burlington, VT, United States Lat: 44.467
Local Time: 5:05 AM EDT ( 9:05 GMT) Lon: -73.15
Time Zone: US/Eastern Elev: 334 ft

Show me the last for .
Show Decoded

2018-04-25 03:54 METAR KBTV 250754Z AUTO 17008KT 10SM OVC100 14/03 A3006 RMK AO2 SLP180 T01390028
                 =
2018-04-25 02:54 METAR KBTV 250654Z AUTO 18009KT 10SM CLR 14/02 A3007 RMK AO2 SLP184 T01440022 =
2018-04-25 01:54 METAR KBTV 250554Z AUTO 18011G22KT 10SM CLR 14/02 A3008 RMK AO2 SLP186 T01440017
                 10189 20144 58007 =
2018-04-25 00:54 METAR KBTV 250454Z AUTO 19011KT 10SM CLR 15/01 A3009 RMK AO2 SLP191 T01500006
                 402280111 =
2018-04-24 23:54 METAR KBTV 250354Z 19014G21KT 10SM BKN150 16/M01 A3010 RMK AO2 SLP194 LAST
                 T01611006 =
2018-04-24 22:54 METAR KBTV 250254Z 19007KT 10SM BKN150 16/M04 A3010 RMK AO2 SLP194 T01611039
                 50005 =
2018-04-24 21:54 METAR KBTV 250154Z 18006KT 10SM BKN200 17/M05 A3011 RMK AO2 SLP195 T01671050 =
2018-04-24 20:54 METAR KBTV 250054Z COR 19008KT 10SM BKN200 18/M07 A3009 RMK AO2 SLP191 T01831067
                 =
2018-04-24 19:54 METAR KBTV 242354Z 18008KT 10SM BKN180 19/M08 A3009 RMK AO2 SLP189 T01891083
                 10228 20189 56013 =
2018-04-24 18:54 METAR KBTV 242254Z 18011KT 10SM BKN180 BKN200 20/M09 A3010 RMK AO2 SLP192
                 T02001089 =
2018-04-24 17:54 METAR KBTV 242154Z 18012G19KT 10SM BKN190 BKN220 21/M07 A3011 RMK AO2 SLP197
                 T02111072 =
2018-04-24 16:54 METAR KBTV 242054Z 17013KT 10SM BKN180 BKN220 22/M06 A3013 RMK AO2 PK WND
                 20026/2009 SLP202 T02171056 56019 =
2018-04-24 15:54 METAR KBTV 241954Z 17013G20KT 10SM BKN110 21/M04 A3014 RMK AO2 SLP206 ACSL ALQDS
                 T02111044 =
2018-04-24 14:54 METAR KBTV 241854Z 21013G17KT 10SM SCT120 BKN250 23/M03 A3016 RMK AO2 SLP213
                 ACSL ALQDS T02281033 =
2018-04-24 13:54 METAR KBTV 241754Z 20013G16KT 10SM FEW100 SCT120 SCT250 22/M04 A3018 RMK AO2
                 SLP221 ACC NW-E ACSL N T02171039 10222 20133 56028 =
2018-04-24 12:54 METAR KBTV 241654Z 21012KT 10SM FEW120 SCT250 21/M03 A3020 RMK AO2 SLP226 ACC NW
                 ACSL ALQDS T02061033 =
2018-04-24 11:54 METAR KBTV 241554Z 19016G20KT 10SM SCT120 SCT200 BKN250 19/M02 A3024 RMK AO2
                 SLP240 ACC NW ACSL ALQDS T01941017 =
2018-04-24 10:54 METAR KBTV 241454Z 19013KT 10SM FEW100 SCT200 BKN250 18/M01 A3027 RMK AO2 SLP249
                 ACSL SE-W T01831011 58010 =
2018-04-24 09:54 METAR KBTV 241354Z 19017G23KT 10SM SCT200 BKN250 17/M02 A3028 RMK AO2 SLP256
                 T01671022 =
2018-04-24 08:54 METAR KBTV 241254Z 19014G22KT 10SM BKN250 14/M04 A3029 RMK AO2 SLP259 T01441039
                 =
2018-04-24 07:54 METAR KBTV 241154Z 19010G19KT 10SM BKN250 13/M04 A3030 RMK AO2 SLP261 T01331044
                 10133 20111 53006 =
2018-04-24 06:54 METAR KBTV 241054Z 19012G17KT 10SM BKN250 12/M05 A3029 RMK AO2 SLP257 T01171050
                 =
2018-04-24 05:54 METAR KBTV 240954Z 18011KT 10SM BKN250 11/M06 A3028 RMK AO2 SLP254 T01111056 =

Support USWX by starting your Amazon purchase here.